This is the latest recevied weather packets stored in our database for station/object PY2VE-13. If no packets are shown the sender has not sent any weather packets the latest 10 day(s).
| Time | Temp. | Humidity | Pressure | Rain* | Wind** | Luminosity | Snow |
|---|---|---|---|---|---|---|---|
| 1777742326 | 28.89° C | 37% | 1020.8 hPa | - | - | - | - |
| 1777741426 | 29.44° C | 36% | 1020.8 hPa | - | - | - | - |
| 1777741251 | 29.44° C | 36% | 1020.9 hPa | - | - | - | - |
| 1777740525 | 29.44° C | 36% | 1021 hPa | - | - | - | - |
| 1777739625 | 30° C | 35% | 1021.2 hPa | - | - | - | - |
| 1777738726 | 30° C | 35% | 1021.3 hPa | - | - | - | - |
| 1777737825 | 28.89° C | 36% | 1021.9 hPa | - | - | - | - |
| 1777736925 | 29.44° C | 36% | 1021.9 hPa | - | - | - | - |
| 1777736025 | 28.89° C | 37% | 1022.4 hPa | - | - | - | - |
| 1777735125 | 28.89° C | 37% | 1022.5 hPa | - | - | - | - |
| 1777734225 | 30° C | 37% | 1022.4 hPa | - | - | - | - |
| 1777733325 | 30° C | 38% | 1022.3 hPa | - | - | - | - |
| 1777732427 | 30° C | 37% | 1022.5 hPa | - | - | - | - |
| 1777731525 | 30.56° C | 39% | 1022.7 hPa | - | - | - | - |
| 1777730625 | 30.56° C | 38% | 1022.9 hPa | - | - | - | - |
| 1777729725 | 30° C | 39% | 1023.2 hPa | - | - | - | - |
| 1777728825 | 30.56° C | 39% | 1023.5 hPa | - | - | - | - |
| 1777727925 | 29.44° C | 40% | 1024 hPa | - | - | - | - |
| 1777727025 | 28.33° C | 41% | 1024.3 hPa | - | - | - | - |
| 1777726125 | 27.78° C | 43% | 1024.4 hPa | - | - | - | - |
| 1777725225 | 27.78° C | 43% | 1024.4 hPa | - | - | - | - |
| 1777724325 | 28.33° C | 44% | 1024.2 hPa | - | - | - | - |
| 1777723425 | 27.78° C | 46% | 1024.3 hPa | - | - | - | - |
| 1777722525 | 26.11° C | 49% | 1024.4 hPa | - | - | - | - |
| 1777721625 | 25.56° C | 50% | 1024.4 hPa | - | - | - | - |
* Rain since midnight (hover to see other rain measurements)
** Current wind speed in m/s (hover to see current wind gust speed)